General Aviation Weather

Text Reports

Enter one or more of the following location identifiers separated by a space:

Zip Code, Four-Character ICAO or Three-Character IATA airport codes.

METAR - Aviation Routine Weather Report
KARM - Wharton, Texas
Updated at 10:35 AM GMT on September 30, 2014 (5:35 AM CDT):
METAR KARM 301035Z AUTO 01003KT 2SM BR CLR 21/20 A2987 RMK AO2 T02070203
TAF - Terminal Area Forecast
KARM - Wharton, Texas
Updated at 10:35 AM GMT on September 30, 2014 (5:35 AM CDT):
No TAF is currently available for this location.
Decoded:
No decoded TAF is available.
PIREP - Pilot Weather Report
KARM - Wharton, Texas
Updated at 10:35 AM GMT on September 30, 2014 (5:35 AM CDT):
No PIREP is currently available for this location.
AIRMET - Airmens Meteorological Information
KARM - Wharton, Texas
Updated at 10:35 AM GMT on September 30, 2014 (5:35 AM CDT):
No AIRMET is currently available for this location.
SIGMET - Significant Meteorological Information
KARM - Wharton, Texas
Updated at 10:35 AM GMT on September 30, 2014 (5:35 AM CDT):
No SIGMET is currently available for this location.
NOTAM - Notice to Airmen
KARM - Wharton, Texas
Updated at 10:35 AM GMT on September 30, 2014 (5:35 AM CDT):
No NOTAM is currently available for this location.
Forecast Area
KARM - Wharton, Texas
Updated at 10:35 AM GMT on September 30, 2014 (5:35 AM CDT):
No NOTAM is currently available for this location.
Aviation Weather Maps